Denver, Colorado
Traffic Map
Current Weather Conditions
Denver, Colorado
Broken Clouds Rain Showers
Broken Clouds
28°
Feels Like: 28°
Wind Chill: 28° Ceiling: 20000
Heat Index: 28° Visibility: 40mi
Dew Point: Wind: 9mph
Humidity: 21% Direction: 220° (SW)
Pressure: 30.06in Gusts: 0mph
Raw Report DataKBJC 192355Z 22008KT 40SM VCSH FEW100 SCT140 BKN200 28/04 A3006 RMK VIRGA ALQDS
Traffic Incident Summary
Active as of:
Severity:
Category:
InformationThere was an issue retrieving the traffic information for this location. Please try a different location or try again shortly.
Advertisements